Time;durP1;ratioP1;P1;durP2;ratioP2;P2;SDS_P1;SDS_P2;PMS_P1;PMS_P2;Temp;Humidity;BMP_temperature;BMP_pressure;BME280_temperature;BME280_humidity;BME280_pressure;Samples;Min_cycle;Max_cycle;Signal;HPM_P1;HPM_P2
2023/10/10 00:02:19;;;;;;;;;;;21.40;96.20;;;;;;5093911;28;19965;-73
2023/10/10 00:04:48;;;;;;;;;;;21.40;96.10;;;;;;5094129;28;19908;-73
2023/10/10 00:07:14;;;;;;;;;;;21.40;96.10;;;;;;5093805;28;19904;-73
2023/10/10 00:09:43;;;;;;;;;;;21.40;96.00;;;;;;5094067;28;20390;-74
2023/10/10 00:12:09;;;;;;;;;;;21.40;96.00;;;;;;5094029;28;19956;-73
2023/10/10 00:14:35;;;;;;;;;;;21.40;96.00;;;;;;5093893;28;20275;-73
2023/10/10 00:17:00;;;;;;;;;;;21.40;95.90;;;;;;5093965;28;19904;-73
2023/10/10 00:21:52;;;;;;;;;;;21.40;95.90;;;;;;5093806;28;19923;-73
2023/10/10 00:24:20;;;;;;;;;;;21.40;95.80;;;;;;5093930;28;19904;-73
2023/10/10 00:26:47;;;;;;;;;;;21.40;95.90;;;;;;5093600;28;19957;-74
2023/10/10 00:29:13;;;;;;;;;;;21.40;95.90;;;;;;5093515;28;19910;-72
2023/10/10 00:31:42;;;;;;;;;;;21.40;96.00;;;;;;5092561;28;19903;-73
2023/10/10 00:34:09;;;;;;;;;;;21.30;96.10;;;;;;5093735;28;19987;-73
2023/10/10 00:36:35;;;;;;;;;;;21.30;96.10;;;;;;5093673;28;19990;-74
2023/10/10 00:41:44;;;;;;;;;;;21.30;96.20;;;;;;5093226;28;19913;-73
2023/10/10 00:44:17;;;;;;;;;;;21.30;96.20;;;;;;5092492;28;19926;-73
2023/10/10 00:46:49;;;;;;;;;;;21.30;96.30;;;;;;5091656;28;20351;-73
2023/10/10 00:49:16;;;;;;;;;;;21.30;96.40;;;;;;5093390;28;20363;-74
2023/10/10 00:51:46;;;;;;;;;;;21.20;96.40;;;;;;5093484;28;19947;-74
2023/10/10 00:54:26;;;;;;;;;;;21.20;96.50;;;;;;5093504;28;19915;-73
2023/10/10 00:56:54;;;;;;;;;;;21.20;96.50;;;;;;5093519;28;19907;-74
2023/10/10 00:59:20;;;;;;;;;;;21.20;96.50;;;;;;5090828;28;20344;-75
2023/10/10 01:01:47;;;;;;;;;;;21.20;96.60;;;;;;5090722;28;20394;-74
2023/10/10 01:04:13;;;;;;;;;;;21.10;96.70;;;;;;5091276;28;19908;-73
2023/10/10 01:06:39;;;;;;;;;;;21.10;96.70;;;;;;5091908;28;19904;-74
2023/10/10 01:09:20;;;;;;;;;;;21.10;96.70;;;;;;5093263;28;19957;-74
2023/10/10 01:11:49;;;;;;;;;;;21.10;96.70;;;;;;5093327;28;19908;-73
2023/10/10 01:14:18;;;;;;;;;;;21.10;96.80;;;;;;5092815;28;20253;-73
2023/10/10 01:16:47;;;;;;;;;;;21.10;96.80;;;;;;5093240;28;19999;-73
2023/10/10 01:19:18;;;;;;;;;;;21.10;96.80;;;;;;5093375;28;19904;-74
2023/10/10 01:21:50;;;;;;;;;;;21.10;96.80;;;;;;5092872;28;20279;-74
2023/10/10 01:24:18;;;;;;;;;;;21.10;96.80;;;;;;5093124;28;20275;-74
2023/10/10 01:26:50;;;;;;;;;;;21.00;96.80;;;;;;5093093;28;19904;-73
2023/10/10 01:29:25;;;;;;;;;;;21.00;96.90;;;;;;5091687;28;20333;-74
2023/10/10 01:31:54;;;;;;;;;;;21.00;96.90;;;;;;5093230;28;19957;-74
2023/10/10 01:37:14;;;;;;;;;;;21.00;96.90;;;;;;5092867;28;20003;-74
2023/10/10 01:39:48;;;;;;;;;;;21.00;97.00;;;;;;5092935;28;19958;-73
2023/10/10 01:42:16;;;;;;;;;;;20.90;97.00;;;;;;5092937;28;19995;-74
2023/10/10 01:44:42;;;;;;;;;;;20.90;97.00;;;;;;5091457;28;19904;-73
2023/10/10 01:47:18;;;;;;;;;;;20.90;97.00;;;;;;5092670;28;19912;-73
2023/10/10 01:49:45;;;;;;;;;;;20.90;97.00;;;;;;5093118;28;19965;-73
2023/10/10 01:52:12;;;;;;;;;;;21.00;96.90;;;;;;5092632;28;19904;-74
2023/10/10 01:54:45;;;;;;;;;;;20.90;96.80;;;;;;5092899;28;19908;-73
2023/10/10 01:57:21;;;;;;;;;;;20.90;96.80;;;;;;5094392;28;19912;-73
2023/10/10 01:59:47;;;;;;;;;;;20.90;96.80;;;;;;5096645;28;20390;-73
2023/10/10 02:02:16;;;;;;;;;;;20.90;96.80;;;;;;5096672;28;19912;-74
2023/10/10 02:04:42;;;;;;;;;;;20.80;96.80;;;;;;5096608;28;19908;-73
2023/10/10 02:07:16;;;;;;;;;;;20.90;96.80;;;;;;5096525;28;19904;-74
2023/10/10 02:09:43;;;;;;;;;;;20.80;97.00;;;;;;5095041;28;19915;-74
2023/10/10 02:12:12;;;;;;;;;;;20.80;96.60;;;;;;5094975;28;19904;-73
2023/10/10 02:14:38;;;;;;;;;;;20.80;96.60;;;;;;5096117;28;19904;-73
2023/10/10 02:17:19;;;;;;;;;;;20.80;96.50;;;;;;5096199;28;19904;-74
2023/10/10 02:19:53;;;;;;;;;;;20.80;96.50;;;;;;5096307;28;20275;-73
2023/10/10 02:22:23;;;;;;;;;;;20.80;96.50;;;;;;5096001;28;19957;-73
2023/10/10 02:24:51;;;;;;;;;;;20.70;96.50;;;;;;5096274;28;19904;-73
2023/10/10 02:27:22;;;;;;;;;;;20.80;96.50;;;;;;5096229;28;19904;-74
2023/10/10 02:29:48;;;;;;;;;;;20.80;96.50;;;;;;5096316;28;19918;-73
2023/10/10 02:32:18;;;;;;;;;;;20.70;96.40;;;;;;5096161;28;20372;-73
2023/10/10 02:34:56;;;;;;;;;;;20.70;96.60;;;;;;5095828;28;19946;-73
2023/10/10 02:37:41;;;;;;;;;;;20.70;96.40;;;;;;5095795;28;19904;-74
2023/10/10 02:42:35;;;;;;;;;;;20.70;96.30;;;;;;5096241;28;19904;-73
2023/10/10 02:45:02;;;;;;;;;;;20.70;96.40;;;;;;5096099;28;19915;-73
2023/10/10 02:47:32;;;;;;;;;;;20.70;96.30;;;;;;5095719;28;20261;-74
2023/10/10 02:50:10;;;;;;;;;;;20.70;96.30;;;;;;5095612;28;19972;-73
2023/10/10 02:52:45;;;;;;;;;;;20.70;96.20;;;;;;5095538;28;19994;-73
2023/10/10 02:55:16;;;;;;;;;;;20.70;96.20;;;;;;5095631;28;19911;-73
2023/10/10 02:57:41;;;;;;;;;;;20.70;96.20;;;;;;5095836;28;19904;-73
2023/10/10 03:00:16;;;;;;;;;;;20.70;96.10;;;;;;5094064;28;19904;-73
2023/10/10 03:02:54;;;;;;;;;;;20.60;96.00;;;;;;5095435;28;19908;-73
2023/10/10 03:05:38;;;;;;;;;;;20.70;96.10;;;;;;5095224;28;20007;-72
2023/10/10 03:08:12;;;;;;;;;;;20.60;96.00;;;;;;5093834;28;19910;-73
2023/10/10 03:10:39;;;;;;;;;;;20.60;96.00;;;;;;5095597;28;19904;-73
2023/10/10 03:13:27;;;;;;;;;;;20.60;96.00;;;;;;5095513;28;19904;-74
2023/10/10 03:15:54;;;;;;;;;;;20.50;96.10;;;;;;5077591;28;19916;-73
2023/10/10 03:18:28;;;;;;;;;;;20.50;96.10;;;;;;5074854;28;19911;-73
2023/10/10 03:23:52;;;;;;;;;;;20.50;96.10;;;;;;5074746;28;19908;-73
2023/10/10 03:26:33;;;;;;;;;;;20.50;95.90;;;;;;5074654;28;20010;-73
2023/10/10 03:29:04;;;;;;;;;;;20.50;95.90;;;;;;5074599;28;20425;-73
2023/10/10 03:31:41;;;;;;;;;;;20.50;95.90;;;;;;5074780;28;19904;-73
2023/10/10 03:36:46;;;;;;;;;;;20.50;95.80;;;;;;5074419;28;19912;-73
2023/10/10 03:39:42;;;;;;;;;;;20.40;95.60;;;;;;5074732;28;19950;-73
2023/10/10 05:23:49;;;;;;;;;;;19.90;96.60;;;;;;5072927;28;19966;-74
2023/10/10 05:26:15;;;;;;;;;;;19.80;96.60;;;;;;5071644;28;19908;-72
2023/10/10 05:28:42;;;;;;;;;;;19.80;96.60;;;;;;5073018;28;19904;-72
2023/10/10 05:31:09;;;;;;;;;;;19.80;96.70;;;;;;5073312;28;19908;-72
2023/10/10 05:33:36;;;;;;;;;;;19.90;96.80;;;;;;5076753;28;20348;-72
2023/10/10 05:36:13;;;;;;;;;;;19.80;96.90;;;;;;5076713;28;19911;-72
2023/10/10 05:38:41;;;;;;;;;;;19.80;96.90;;;;;;5076679;28;19927;-73
2023/10/10 05:41:07;;;;;;;;;;;19.80;97.20;;;;;;5076476;28;19912;-71
2023/10/10 05:43:33;;;;;;;;;;;19.80;97.00;;;;;;5076347;28;20003;-71
2023/10/10 05:45:59;;;;;;;;;;;19.80;97.00;;;;;;5076387;28;19905;-72
2023/10/10 05:48:26;;;;;;;;;;;19.80;97.00;;;;;;5076076;28;19917;-73
2023/10/10 05:50:53;;;;;;;;;;;19.90;97.10;;;;;;5076175;28;19908;-72
2023/10/10 05:53:20;;;;;;;;;;;19.80;97.10;;;;;;5076164;28;20005;-71
2023/10/10 05:55:53;;;;;;;;;;;19.80;97.10;;;;;;5075983;28;20379;-71
2023/10/10 05:58:19;;;;;;;;;;;19.80;97.00;;;;;;5076049;28;19966;-71
2023/10/10 06:00:44;;;;;;;;;;;19.80;97.10;;;;;;5076230;28;20385;-72
2023/10/10 06:03:12;;;;;;;;;;;19.80;97.00;;;;;;5076169;28;19904;-71
2023/10/10 06:05:42;;;;;;;;;;;19.80;97.00;;;;;;5076070;28;19911;-72
2023/10/10 06:08:07;;;;;;;;;;;19.80;97.00;;;;;;5075348;28;19911;-71
2023/10/10 06:10:33;;;;;;;;;;;19.80;97.10;;;;;;5075824;28;19905;-72
2023/10/10 06:13:03;;;;;;;;;;;19.80;97.10;;;;;;5075438;28;20260;-72
2023/10/10 06:15:29;;;;;;;;;;;19.90;97.10;;;;;;5074319;28;19909;-71
2023/10/10 06:17:57;;;;;;;;;;;19.90;97.10;;;;;;5074583;28;19909;-73
2023/10/10 06:20:23;;;;;;;;;;;19.80;97.10;;;;;;5079807;28;19911;-72
2023/10/10 06:22:49;;;;;;;;;;;19.80;97.00;;;;;;5095249;28;19912;-72
2023/10/10 06:25:18;;;;;;;;;;;19.90;97.00;;;;;;5095540;28;19911;-72
2023/10/10 06:27:54;;;;;;;;;;;19.80;97.00;;;;;;5095457;28;20263;-70
2023/10/10 06:30:26;;;;;;;;;;;19.90;97.00;;;;;;5095428;28;19904;-72
2023/10/10 06:32:54;;;;;;;;;;;19.90;97.00;;;;;;5094636;28;19911;-72
2023/10/10 06:37:51;;;;;;;;;;;20.00;96.90;;;;;;5093842;28;19994;-71
2023/10/10 06:40:24;;;;;;;;;;;19.90;96.70;;;;;;5093427;28;19911;-71
2023/10/10 06:42:54;;;;;;;;;;;20.00;96.70;;;;;;5093084;28;20006;-73
2023/10/10 06:45:22;;;;;;;;;;;20.00;96.60;;;;;;5093463;28;19912;-69
2023/10/10 06:47:50;;;;;;;;;;;20.10;96.50;;;;;;5093827;28;19923;-71
2023/10/10 06:50:21;;;;;;;;;;;20.10;96.40;;;;;;5095141;28;19904;-72
2023/10/10 06:52:52;;;;;;;;;;;20.10;96.40;;;;;;5095342;28;19927;-71
2023/10/10 06:55:22;;;;;;;;;;;20.10;96.40;;;;;;5095165;28;19947;-71
2023/10/10 06:58:01;;;;;;;;;;;20.10;96.30;;;;;;5095280;28;19911;-70
2023/10/10 07:00:43;;;;;;;;;;;20.20;96.30;;;;;;5095135;28;19957;-70
2023/10/10 07:03:10;;;;;;;;;;;20.20;96.40;;;;;;5095251;28;19920;-72
2023/10/10 07:05:35;;;;;;;;;;;20.20;96.40;;;;;;5095029;28;19904;-70
2023/10/10 07:08:13;;;;;;;;;;;20.30;96.40;;;;;;5094972;28;19908;-72
2023/10/10 07:10:42;;;;;;;;;;;20.30;96.50;;;;;;5093762;28;19904;-71
2023/10/10 07:13:13;;;;;;;;;;;20.30;96.50;;;;;;5094953;28;19943;-69
2023/10/10 07:15:39;;;;;;;;;;;20.30;96.60;;;;;;5094487;28;20341;-71
2023/10/10 07:18:09;;;;;;;;;;;20.30;96.70;;;;;;5094822;28;19904;-72
2023/10/10 07:23:22;;;;;;;;;;;20.30;96.70;;;;;;5094830;28;20011;-70
2023/10/10 07:26:01;;;;;;;;;;;20.30;96.70;;;;;;5094670;28;19943;-71
2023/10/10 07:28:27;;;;;;;;;;;20.30;96.70;;;;;;5094567;28;19940;-70
2023/10/10 07:30:55;;;;;;;;;;;20.30;96.70;;;;;;5094406;28;20378;-70
2023/10/10 07:33:26;;;;;;;;;;;20.40;96.70;;;;;;5093327;28;20367;-70
2023/10/10 07:35:53;;;;;;;;;;;20.40;96.70;;;;;;5094210;28;19908;-70
2023/10/10 07:38:28;;;;;;;;;;;20.40;96.60;;;;;;5093195;28;20394;-70
2023/10/10 07:40:54;;;;;;;;;;;20.50;96.50;;;;;;5094458;28;19918;-70
2023/10/10 07:43:20;;;;;;;;;;;20.50;96.50;;;;;;5094396;28;19995;-70
2023/10/10 07:45:47;;;;;;;;;;;20.50;96.60;;;;;;5092996;28;19951;-70
2023/10/10 07:50:47;;;;;;;;;;;20.60;96.50;;;;;;5093534;28;19904;-71
2023/10/10 07:53:13;;;;;;;;;;;20.60;96.50;;;;;;5093633;28;19904;-70
2023/10/10 07:58:23;;;;;;;;;;;20.60;96.50;;;;;;5093659;28;19953;-72
2023/10/10 08:00:49;;;;;;;;;;;20.60;96.40;;;;;;5094428;28;19918;-71
2023/10/10 08:03:20;;;;;;;;;;;20.60;96.40;;;;;;5093931;28;20368;-70
2023/10/10 08:05:50;;;;;;;;;;;20.60;96.40;;;;;;5094078;28;19911;-70
2023/10/10 08:08:19;;;;;;;;;;;20.70;96.40;;;;;;5093943;28;19908;-73
2023/10/10 08:10:49;;;;;;;;;;;20.70;96.40;;;;;;5094022;28;20276;-72
2023/10/10 08:13:15;;;;;;;;;;;20.70;96.40;;;;;;5094124;28;19904;-73
2023/10/10 08:15:56;;;;;;;;;;;20.70;96.40;;;;;;5092832;28;19911;-73
2023/10/10 08:21:14;;;;;;;;;;;20.80;96.50;;;;;;5093524;28;19919;-72
2023/10/10 08:23:43;;;;;;;;;;;20.80;96.40;;;;;;5093480;28;19904;-73
2023/10/10 08:26:17;;;;;;;;;;;20.90;96.30;;;;;;5093255;28;19964;-72
2023/10/10 08:28:46;;;;;;;;;;;20.90;96.20;;;;;;5093545;28;19911;-72
2023/10/10 08:31:15;;;;;;;;;;;20.90;96.00;;;;;;5093607;28;19956;-72
2023/10/10 08:33:44;;;;;;;;;;;21.00;96.00;;;;;;5093522;28;19907;-73
2023/10/10 08:36:23;;;;;;;;;;;21.00;96.10;;;;;;5093650;28;19949;-72
2023/10/10 08:38:59;;;;;;;;;;;21.10;95.90;;;;;;5093527;28;19904;-73
2023/10/10 08:41:26;;;;;;;;;;;21.10;95.70;;;;;;5093396;28;19965;-73
2023/10/10 08:43:58;;;;;;;;;;;21.10;95.70;;;;;;5091609;28;20072;-73
2023/10/10 08:46:29;;;;;;;;;;;21.10;95.70;;;;;;5093626;28;19957;-73
2023/10/10 08:48:57;;;;;;;;;;;21.20;96.00;;;;;;5093718;28;19916;-72
2023/10/10 08:51:23;;;;;;;;;;;21.20;95.60;;;;;;5093786;28;20275;-73
2023/10/10 08:53:50;;;;;;;;;;;21.30;95.70;;;;;;5093549;28;19927;-73
2023/10/10 08:56:16;;;;;;;;;;;21.40;95.60;;;;;;5093315;28;19908;-73
2023/10/10 08:58:42;;;;;;;;;;;21.40;95.30;;;;;;5093553;28;19908;-72
2023/10/10 09:01:08;;;;;;;;;;;21.50;95.10;;;;;;5093211;28;19919;-73
2023/10/10 09:03:34;;;;;;;;;;;21.50;95.00;;;;;;5093428;28;20373;-73
2023/10/10 09:06:21;;;;;;;;;;;21.60;94.90;;;;;;5093281;28;19908;-72
2023/10/10 09:08:49;;;;;;;;;;;21.60;94.80;;;;;;5093309;28;19916;-72
2023/10/10 09:11:23;;;;;;;;;;;21.70;94.60;;;;;;5093080;28;20340;-73
2023/10/10 09:13:51;;;;;;;;;;;21.80;94.60;;;;;;5093472;28;19957;-73
2023/10/10 09:16:19;;;;;;;;;;;21.80;94.40;;;;;;5093328;28;19904;-73
2023/10/10 09:18:45;;;;;;;;;;;21.90;94.30;;;;;;5093364;28;19954;-73
2023/10/10 09:21:18;;;;;;;;;;;21.90;94.20;;;;;;5093081;28;19916;-73
2023/10/10 09:23:52;;;;;;;;;;;21.90;94.10;;;;;;5091937;28;20424;-73
2023/10/10 09:28:55;;;;;;;;;;;22.00;94.10;;;;;;5093046;28;19945;-73
2023/10/10 09:31:26;;;;;;;;;;;22.00;93.90;;;;;;5093188;28;19904;-73
2023/10/10 09:33:54;;;;;;;;;;;22.00;93.90;;;;;;5093141;28;20271;-73
2023/10/10 09:36:20;;;;;;;;;;;22.00;93.80;;;;;;5093059;28;20283;-73
2023/10/10 09:38:47;;;;;;;;;;;22.10;93.80;;;;;;5092941;28;19908;-72
2023/10/10 09:49:52;;;;;;;;;;;22.10;93.40;;;;;;5092706;28;19927;-73
2023/10/10 09:57:40;;;;;;;;;;;22.20;93.30;;;;;;5093008;28;19939;-73
2023/10/10 10:00:18;;;;;;;;;;;22.30;93.30;;;;;;5093002;28;19904;-74
2023/10/10 10:02:49;;;;;;;;;;;22.40;93.30;;;;;;5093001;28;20321;-73
2023/10/10 10:05:20;;;;;;;;;;;22.40;93.20;;;;;;5092608;28;19947;-73
2023/10/10 10:07:56;;;;;;;;;;;22.40;93.20;;;;;;5092909;28;19911;-74
2023/10/10 10:10:35;;;;;;;;;;;22.40;93.30;;;;;;5092647;28;19966;-74
2023/10/10 10:13:26;;;;;;;;;;;22.40;93.10;;;;;;5091393;28;20178;-74
2023/10/10 10:15:56;;;;;;;;;;;22.50;93.10;;;;;;5064701;28;19904;-73
2023/10/10 10:18:44;;;;;;;;;;;22.50;92.80;;;;;;5092727;28;20386;-74
2023/10/10 10:21:31;;;;;;;;;;;22.50;93.20;;;;;;5096057;28;19996;-74
2023/10/10 10:24:15;;;;;;;;;;;22.60;93.00;;;;;;5095990;28;20280;-73
2023/10/10 10:26:44;;;;;;;;;;;22.60;92.90;;;;;;5096056;28;20028;-73
2023/10/10 10:29:16;;;;;;;;;;;22.60;92.90;;;;;;5087505;28;20363;-73
2023/10/10 10:31:49;;;;;;;;;;;22.60;92.40;;;;;;5080734;28;19961;-73
2023/10/10 10:37:02;;;;;;;;;;;22.70;92.20;;;;;;5096395;28;19998;-73
2023/10/10 10:39:35;;;;;;;;;;;22.70;92.00;;;;;;5095132;28;20002;-72
2023/10/10 10:42:00;;;;;;;;;;;22.70;92.00;;;;;;5090116;28;19916;-73
2023/10/10 10:44:29;;;;;;;;;;;22.70;92.00;;;;;;5086422;28;20440;-72
2023/10/10 10:46:56;;;;;;;;;;;22.70;92.00;;;;;;5095606;28;19904;-73
2023/10/10 10:49:22;;;;;;;;;;;22.70;92.20;;;;;;5095812;28;19999;-74
2023/10/10 10:51:50;;;;;;;;;;;22.70;92.10;;;;;;5095628;28;20382;-73
2023/10/10 10:54:37;;;;;;;;;;;22.70;92.40;;;;;;5095566;28;19904;-74
2023/10/10 10:57:03;;;;;;;;;;;22.70;92.00;;;;;;5093625;28;19908;-74
2023/10/10 10:59:45;;;;;;;;;;;22.80;92.00;;;;;;5095253;28;20259;-74
2023/10/10 11:02:17;;;;;;;;;;;22.80;91.90;;;;;;5095130;28;19964;-74
2023/10/10 11:04:50;;;;;;;;;;;22.80;91.90;;;;;;5095300;28;19957;-74
2023/10/10 11:07:25;;;;;;;;;;;22.80;92.00;;;;;;5095100;28;20244;-75
2023/10/10 11:10:06;;;;;;;;;;;22.80;91.90;;;;;;5095008;28;19911;-75
2023/10/10 11:12:33;;;;;;;;;;;22.90;92.00;;;;;;5095256;28;19915;-74
2023/10/10 11:15:04;;;;;;;;;;;22.90;92.10;;;;;;5093639;28;19904;-75
2023/10/10 11:17:37;;;;;;;;;;;22.90;91.90;;;;;;5093687;28;19950;-74
2023/10/10 11:20:25;;;;;;;;;;;22.90;91.90;;;;;;5094936;28;20364;-74
2023/10/10 11:22:53;;;;;;;;;;;22.90;92.10;;;;;;5091831;28;20354;-75
2023/10/10 11:25:27;;;;;;;;;;;22.90;92.00;;;;;;5092778;28;19995;-73
2023/10/10 11:27:54;;;;;;;;;;;22.90;92.10;;;;;;5094771;28;19955;-74
2023/10/10 11:30:25;;;;;;;;;;;22.90;92.30;;;;;;5094345;28;19910;-73
2023/10/10 11:33:00;;;;;;;;;;;22.90;92.10;;;;;;5094961;28;19935;-74
2023/10/10 11:35:26;;;;;;;;;;;22.90;92.20;;;;;;5094805;28;20006;-74
2023/10/10 11:38:09;;;;;;;;;;;23.00;92.00;;;;;;5093340;28;19954;-74
2023/10/10 11:40:36;;;;;;;;;;;23.00;92.10;;;;;;5094803;28;19954;-74
2023/10/10 11:43:05;;;;;;;;;;;23.00;92.00;;;;;;5092849;28;20363;-74
2023/10/10 11:45:38;;;;;;;;;;;23.00;91.90;;;;;;5094285;28;20245;-75
2023/10/10 11:48:14;;;;;;;;;;;23.00;91.80;;;;;;5094406;28;19916;-74
2023/10/10 11:50:50;;;;;;;;;;;23.10;91.80;;;;;;5095215;28;20007;-73
2023/10/10 11:53:23;;;;;;;;;;;23.10;91.90;;;;;;5094376;28;19914;-74
2023/10/10 11:55:49;;;;;;;;;;;23.10;92.20;;;;;;5092848;28;19931;-73
2023/10/10 11:58:17;;;;;;;;;;;23.10;92.10;;;;;;5094039;28;19904;-74
2023/10/10 12:00:43;;;;;;;;;;;23.10;92.10;;;;;;5094247;28;19908;-74
2023/10/10 12:03:10;;;;;;;;;;;23.10;92.10;;;;;;5093996;28;19954;-74
2023/10/10 12:05:38;;;;;;;;;;;23.20;92.00;;;;;;5093963;28;19911;-74
2023/10/10 12:08:07;;;;;;;;;;;23.20;92.30;;;;;;5093887;28;19904;-75
2023/10/10 12:10:47;;;;;;;;;;;23.20;92.10;;;;;;5093940;28;20402;-73
2023/10/10 12:15:57;;;;;;;;;;;23.30;92.00;;;;;;5093803;28;19904;-72
2023/10/10 12:18:30;;;;;;;;;;;23.30;92.00;;;;;;5093858;28;20360;-72
2023/10/10 12:20:59;;;;;;;;;;;23.40;92.20;;;;;;5093425;28;19912;-74
2023/10/10 12:23:24;;;;;;;;;;;23.40;92.20;;;;;;5093834;28;20378;-74
2023/10/10 12:25:54;;;;;;;;;;;23.50;91.90;;;;;;5092688;28;20008;-74
2023/10/10 12:28:20;;;;;;;;;;;23.60;91.70;;;;;;5093769;28;19910;-73
2023/10/10 12:30:45;;;;;;;;;;;23.70;91.70;;;;;;5093632;28;19904;-73
2023/10/10 12:33:17;;;;;;;;;;;23.70;91.80;;;;;;5090706;28;20018;-74
2023/10/10 12:35:46;;;;;;;;;;;23.80;91.30;;;;;;5089606;28;20006;-75
2023/10/10 12:38:15;;;;;;;;;;;23.90;91.30;;;;;;5091222;28;20273;-76
2023/10/10 12:40:43;;;;;;;;;;;23.90;91.20;;;;;;5092417;28;19904;-74
2023/10/10 12:43:11;;;;;;;;;;;24.00;91.40;;;;;;5092643;28;19949;-74
2023/10/10 12:45:37;;;;;;;;;;;24.00;91.50;;;;;;5093288;28;19915;-75
2023/10/10 12:48:04;;;;;;;;;;;24.00;91.60;;;;;;5092978;28;20422;-74
2023/10/10 12:50:30;;;;;;;;;;;24.10;91.60;;;;;;5093488;28;19904;-73
2023/10/10 12:53:39;;;;;;;;;;;24.10;91.50;;;;;;5093512;28;20343;-74
2023/10/10 12:56:01;;;;;;;;;;;24.10;91.30;;;;;;5087192;28;20389;-74
2023/10/10 12:58:27;;;;;;;;;;;24.10;91.10;;;;;;5091387;28;19957;-74
2023/10/10 13:00:53;;;;;;;;;;;24.10;91.00;;;;;;5090619;28;19923;-74
2023/10/10 13:03:23;;;;;;;;;;;24.20;90.90;;;;;;5090663;28;19908;-73
2023/10/10 13:05:52;;;;;;;;;;;24.20;90.90;;;;;;5079113;28;20264;-73
2023/10/10 13:08:20;;;;;;;;;;;24.20;91.00;;;;;;5072761;28;20364;-73
2023/10/10 13:10:54;;;;;;;;;;;24.20;91.00;;;;;;5072842;28;19909;-74
2023/10/10 13:13:31;;;;;;;;;;;24.20;91.00;;;;;;5072948;28;20360;-73
2023/10/10 13:18:41;;;;;;;;;;;24.30;91.50;;;;;;5072957;28;19930;-74
2023/10/10 13:21:07;;;;;;;;;;;24.20;91.00;;;;;;5072827;28;19912;-73
2023/10/10 13:23:35;;;;;;;;;;;24.30;90.90;;;;;;5071732;28;20348;-75
2023/10/10 13:26:01;;;;;;;;;;;24.20;90.90;;;;;;5072813;28;19911;-74
2023/10/10 13:28:26;;;;;;;;;;;24.20;90.90;;;;;;5072872;28;19904;-73
2023/10/10 13:30:52;;;;;;;;;;;24.20;91.00;;;;;;5072761;28;19904;-74
2023/10/10 13:33:20;;;;;;;;;;;24.20;90.80;;;;;;5072814;28;19911;-73
2023/10/10 13:35:45;;;;;;;;;;;24.20;91.10;;;;;;5072587;28;19908;-72
2023/10/10 13:38:12;;;;;;;;;;;24.20;90.90;;;;;;5072823;28;19904;-73
2023/10/10 13:40:38;;;;;;;;;;;24.20;90.80;;;;;;5072687;28;19910;-73
2023/10/10 13:43:08;;;;;;;;;;;24.20;90.80;;;;;;5072745;28;20007;-72
2023/10/10 13:45:41;;;;;;;;;;;24.20;90.70;;;;;;5071004;28;20288;-72
2023/10/10 13:48:13;;;;;;;;;;;24.20;90.60;;;;;;5071514;28;19920;-73
2023/10/10 13:50:42;;;;;;;;;;;24.20;90.60;;;;;;5073010;28;19904;-73
2023/10/10 13:53:11;;;;;;;;;;;24.20;90.80;;;;;;5087286;28;20276;-73
2023/10/10 13:55:38;;;;;;;;;;;24.20;90.70;;;;;;5096729;28;19911;-73
2023/10/10 13:58:07;;;;;;;;;;;24.20;90.50;;;;;;5096297;28;19904;-72
2023/10/10 14:00:41;;;;;;;;;;;24.20;90.60;;;;;;5096515;28;19904;-73
2023/10/10 14:03:06;;;;;;;;;;;24.20;90.70;;;;;;5096501;28;19908;-72
2023/10/10 14:05:33;;;;;;;;;;;24.20;91.00;;;;;;5096399;28;19908;-73
2023/10/10 14:08:00;;;;;;;;;;;24.20;91.10;;;;;;5096410;28;19908;-74
2023/10/10 14:10:26;;;;;;;;;;;24.20;91.30;;;;;;5095652;28;19904;-73
2023/10/10 14:12:51;;;;;;;;;;;24.20;91.30;;;;;;5095603;28;20002;-73
2023/10/10 14:15:20;;;;;;;;;;;24.20;91.40;;;;;;5096186;28;19950;-72
2023/10/10 14:17:49;;;;;;;;;;;24.10;91.20;;;;;;5095486;28;19904;-73
2023/10/10 14:20:21;;;;;;;;;;;24.10;91.20;;;;;;5096184;28;20041;-73
2023/10/10 14:22:49;;;;;;;;;;;24.10;91.30;;;;;;5095885;28;20457;-73
2023/10/10 14:25:15;;;;;;;;;;;24.10;91.30;;;;;;5096147;28;19911;-72
2023/10/10 14:27:43;;;;;;;;;;;24.10;91.30;;;;;;5096255;28;19904;-71
2023/10/10 14:30:20;;;;;;;;;;;24.10;91.20;;;;;;5095710;28;19904;-73
2023/10/10 14:32:57;;;;;;;;;;;24.10;91.30;;;;;;5095680;28;19904;-72
2023/10/10 14:35:23;;;;;;;;;;;24.10;91.20;;;;;;5096086;28;20295;-73
2023/10/10 14:37:54;;;;;;;;;;;24.10;91.40;;;;;;5096029;28;19996;-72
2023/10/10 14:40:22;;;;;;;;;;;24.10;91.40;;;;;;5096023;28;19931;-72
2023/10/10 14:42:52;;;;;;;;;;;24.10;91.20;;;;;;5095552;28;19912;-73
2023/10/10 14:45:18;;;;;;;;;;;24.10;90.70;;;;;;5094038;28;19910;-72
2023/10/10 14:47:45;;;;;;;;;;;24.10;90.80;;;;;;5094691;28;19915;-72
2023/10/10 14:50:12;;;;;;;;;;;24.10;90.80;;;;;;5095561;28;19904;-71
2023/10/10 14:52:47;;;;;;;;;;;24.10;90.80;;;;;;5094595;28;19908;-72
2023/10/10 14:55:23;;;;;;;;;;;24.10;90.90;;;;;;5095273;28;19904;-72
2023/10/10 14:57:54;;;;;;;;;;;24.00;91.00;;;;;;5095368;28;19907;-72
2023/10/10 15:00:28;;;;;;;;;;;24.00;91.00;;;;;;5095432;28;19904;-72
2023/10/10 15:02:55;;;;;;;;;;;24.00;90.90;;;;;;5095413;28;20292;-72
2023/10/10 15:05:23;;;;;;;;;;;24.00;90.90;;;;;;5094626;28;19904;-71
2023/10/10 15:07:49;;;;;;;;;;;24.00;91.00;;;;;;5093988;28;19911;-72
2023/10/10 15:10:14;;;;;;;;;;;24.00;91.00;;;;;;5094043;28;19904;-72
2023/10/10 15:12:40;;;;;;;;;;;24.00;91.10;;;;;;5095043;28;19928;-71
2023/10/10 15:15:06;;;;;;;;;;;24.00;91.20;;;;;;5095294;28;19904;-72
2023/10/10 15:17:31;;;;;;;;;;;24.00;91.40;;;;;;5094987;28;20056;-71
2023/10/10 15:19:58;;;;;;;;;;;24.00;91.40;;;;;;5095184;28;19949;-72
2023/10/10 15:22:25;;;;;;;;;;;23.90;91.50;;;;;;5094704;28;19919;-72
2023/10/10 15:24:50;;;;;;;;;;;23.90;91.50;;;;;;5094044;28;19991;-72
2023/10/10 15:27:17;;;;;;;;;;;23.90;91.60;;;;;;5094262;28;20505;-72
2023/10/10 15:29:43;;;;;;;;;;;23.80;91.60;;;;;;5095134;28;19904;-72
2023/10/10 15:32:09;;;;;;;;;;;23.80;91.60;;;;;;5094435;28;19904;-76
2023/10/10 15:34:34;;;;;;;;;;;23.80;91.70;;;;;;5091507;28;19911;-78
2023/10/10 15:37:00;;;;;;;;;;;23.80;91.90;;;;;;5093906;28;19904;-77
2023/10/10 15:39:26;;;;;;;;;;;23.80;91.90;;;;;;5092946;28;19926;-78
2023/10/10 15:41:51;;;;;;;;;;;23.80;91.90;;;;;;5093504;28;19912;-77
2023/10/10 15:44:17;;;;;;;;;;;23.80;92.10;;;;;;5092909;28;19947;-78
2023/10/10 15:46:45;;;;;;;;;;;23.80;92.00;;;;;;5093564;28;19904;-77
2023/10/10 15:49:14;;;;;;;;;;;23.80;92.00;;;;;;5094046;28;19920;-76
2023/10/10 15:51:39;;;;;;;;;;;23.80;92.00;;;;;;5093893;28;19904;-78
2023/10/10 15:54:07;;;;;;;;;;;23.80;92.00;;;;;;5094002;28;19904;-77
2023/10/10 15:56:33;;;;;;;;;;;23.80;92.00;;;;;;5093493;28;19911;-77
2023/10/10 15:58:59;;;;;;;;;;;23.80;92.10;;;;;;5094207;28;20381;-76
2023/10/10 16:01:28;;;;;;;;;;;23.70;92.00;;;;;;5094360;28;19935;-76
2023/10/10 16:03:54;;;;;;;;;;;23.70;92.00;;;;;;5093112;28;19904;-77
2023/10/10 16:06:22;;;;;;;;;;;23.70;92.00;;;;;;5094229;28;19904;-76
2023/10/10 16:08:51;;;;;;;;;;;23.70;92.10;;;;;;5094084;28;19950;-76
2023/10/10 16:11:20;;;;;;;;;;;23.70;92.10;;;;;;5094345;28;19904;-77
2023/10/10 16:13:46;;;;;;;;;;;23.60;92.10;;;;;;5092828;28;19904;-75
2023/10/10 16:16:18;;;;;;;;;;;23.60;92.10;;;;;;5091738;28;20034;-76
2023/10/10 16:18:45;;;;;;;;;;;23.60;92.20;;;;;;5092087;28;19908;-77
2023/10/10 16:21:13;;;;;;;;;;;23.60;92.30;;;;;;5092200;28;19915;-75
2023/10/10 16:23:43;;;;;;;;;;;23.50;92.30;;;;;;5092178;28;20126;-77
2023/10/10 16:26:14;;;;;;;;;;;23.50;92.30;;;;;;5092415;28;20003;-77
2023/10/10 16:28:40;;;;;;;;;;;23.50;92.40;;;;;;5092479;28;19911;-77
2023/10/10 16:31:10;;;;;;;;;;;23.50;92.40;;;;;;5093896;28;19926;-77
2023/10/10 16:33:40;;;;;;;;;;;23.50;92.50;;;;;;5094108;28;19904;-77
2023/10/10 16:36:09;;;;;;;;;;;23.50;92.60;;;;;;5093643;28;19904;-78
2023/10/10 16:38:35;;;;;;;;;;;23.40;92.60;;;;;;5094010;28;20332;-77
2023/10/10 16:41:07;;;;;;;;;;;23.40;92.70;;;;;;5093523;28;19919;-77
2023/10/10 16:43:36;;;;;;;;;;;23.40;92.70;;;;;;5093742;28;19908;-77
2023/10/10 16:46:08;;;;;;;;;;;23.40;92.70;;;;;;5093454;28;20415;-77
2023/10/10 16:48:34;;;;;;;;;;;23.30;92.80;;;;;;5093674;28;19938;-77
2023/10/10 16:51:01;;;;;;;;;;;23.30;92.80;;;;;;5093525;28;20003;-77
2023/10/10 16:53:28;;;;;;;;;;;23.30;92.90;;;;;;5093522;28;19904;-77
2023/10/10 16:55:53;;;;;;;;;;;23.30;92.90;;;;;;5093682;28;20372;-78
2023/10/10 16:58:19;;;;;;;;;;;23.20;92.90;;;;;;5090506;28;19947;-77
2023/10/10 17:00:47;;;;;;;;;;;23.20;93.00;;;;;;5090435;28;20386;-76
2023/10/10 17:03:13;;;;;;;;;;;23.20;93.10;;;;;;5090070;28;19908;-76
2023/10/10 17:05:40;;;;;;;;;;;23.20;93.20;;;;;;5093306;28;19908;-76
2023/10/10 17:08:06;;;;;;;;;;;23.20;93.20;;;;;;5093313;28;19911;-76